Portada
METAR-TAF:

METAR-TAF

Aeroports :

Teheran, Iran

latitud: 35-41N, longitud: 051-21E, altitud: 1204 m

Observació

L'informe es va fer fa 25 minuts, a les 11:00 UTC
Vent 8 kt del Sud/Sud-Est
Temperatura 20°C
Humitat 37%
Pressió 1024 hPa
Visibilitat 10 km o més
Escasses núvols a una alçada de 3500 ft

METAR: OIII 171100Z 16008KT 9999 FEW035 20/05 Q1023 A3023 NOSIG

Hora: 14:55 (11:25 UTC)

Pronòstic

L'informe es va fer fa 5 hores i 55 minuts, a les 05:30 UTC
Pronòstic vàlid del 17 a les 06 UTC al 18 a les 12 UTC
Vent 10 kt del Oest/Nord-Oest
Visibilitat: 7000 m
Escasses núvols a una alçada de 3000 ft
Núvols disperses a una alçada de 10000 ft
Temporalment
l' 17 a les 09 UTC al 17 a les 15 UTC
Vent 17 kt del Oest
Escasses núvols a una alçada de 3500 ft, Cumulonimbus.
Núvols disperses a una alçada de 4000 ft
Cel ennuvolat a una alçada de 9000 ft

TAF: OIII 170530Z 1706/1812 30005MPS 7000 FEW030 SCT100 TEMPO 1709/1715 26009MPS FEW035CB SCT040 BKN090

Observacions i pronòstics meteorològics de més de 4000 aeroports (METAR i TAF).

Les estacions disponibles són els punts grocs i vermells al mapa.

Posi el ratolí al punt desitjat per veure el nom de l'estació.

Feu clic per veure les observacions i els pronòstics meteorològics.

Per canviar el mapa: feu clic els botons verds amb una creu de color negre per apropar; al botó verd amb un guió per allunyar la imatge; o en les fletxes verdes per a mapes adjacents.


METAR-TAF: